This is the latest recevied weather packets stored in our database for station/object SQ8SW-4. If no packets are shown the sender has not sent any weather packets the latest 10 day(s).
| Time | Temp. | Humidity | Pressure | Rain* | Wind** | Luminosity | Snow |
|---|---|---|---|---|---|---|---|
| 1777959447 | 15.56° C | 50% | 985 hPa | - | - | - | - |
| 1777958545 | 14.44° C | 52% | 985 hPa | - | - | - | - |
| 1777957643 | 13.89° C | 55% | 985 hPa | - | - | - | - |
| 1777956741 | 12.78° C | 56% | 985 hPa | - | - | - | - |
| 1777955838 | 11.67° C | 59% | 985 hPa | - | - | - | - |
| 1777954936 | 10° C | 63% | 985 hPa | - | - | - | - |
| 1777954034 | 9.44° C | 69% | 985 hPa | - | - | - | - |
| 1777953132 | 8.89° C | 72% | 985 hPa | - | - | - | - |
| 1777952230 | 8.89° C | 75% | 985 hPa | - | - | - | - |
| 1777951327 | 8.89° C | 75% | 985 hPa | - | - | - | - |
| 1777950425 | 9.44° C | 73% | 985 hPa | - | - | - | - |
| 1777949523 | 9.44° C | 73% | 985 hPa | - | - | - | - |
| 1777948620 | 9.44° C | 73% | 985 hPa | - | - | - | - |
| 1777947718 | 10° C | 72% | 985 hPa | - | - | - | - |
| 1777946816 | 10.56° C | 67% | 985 hPa | - | - | - | - |
| 1777945914 | 10.56° C | 66% | 985 hPa | - | - | - | - |
| 1777945011 | 10.56° C | 66% | 985 hPa | - | - | - | - |
| 1777944108 | 11.11° C | 66% | 985 hPa | - | - | - | - |
| 1777943206 | 11.11° C | 67% | 985 hPa | - | - | - | - |
| 1777942304 | 11.67° C | 68% | 985 hPa | - | - | - | - |
| 1777941402 | 11.67° C | 67% | 985 hPa | - | - | - | - |
| 1777940499 | 12.22° C | 65% | 985 hPa | - | - | - | - |
| 1777939597 | 12.78° C | 62% | 986 hPa | - | - | - | - |
| 1777938695 | 12.78° C | 62% | 986 hPa | - | - | - | - |
| 1777937793 | 13.33° C | 62% | 986 hPa | - | - | - | - |
* Rain since midnight (hover to see other rain measurements)
** Current wind speed in m/s (hover to see current wind gust speed)